createdAt,value
2022-09-01T00:01:28.571Z,38.30
2022-09-01T00:03:59.695Z,38.30
2022-09-01T00:06:27.525Z,38.30
2022-09-01T00:08:56.338Z,38.30
2022-09-01T00:11:24.787Z,38.40
2022-09-01T00:13:52.806Z,38.50
2022-09-01T00:16:21.024Z,38.50
2022-09-01T00:18:50.166Z,38.50
2022-09-01T00:21:19.872Z,38.50
2022-09-01T00:23:47.895Z,38.50
2022-09-01T00:26:15.811Z,39.10
2022-09-01T00:28:43.636Z,38.50
2022-09-01T00:31:11.942Z,38.50
2022-09-01T00:33:39.883Z,38.60
2022-09-01T00:36:08.180Z,38.70
2022-09-01T00:38:38.157Z,38.60
2022-09-01T00:41:07.561Z,38.50
2022-09-01T00:43:40.047Z,38.50
2022-09-01T00:46:09.069Z,38.70
2022-09-01T00:48:38.451Z,38.50
2022-09-01T00:51:06.578Z,38.70
2022-09-01T00:53:34.361Z,38.70
2022-09-01T00:56:03.572Z,38.70
2022-09-01T00:58:31.759Z,38.70
2022-09-01T01:00:59.556Z,38.70
2022-09-01T01:03:27.877Z,38.70
2022-09-01T01:05:58.012Z,38.70
2022-09-01T01:08:33.775Z,38.80
2022-09-01T01:11:03.190Z,38.70
2022-09-01T01:13:37.707Z,38.80
2022-09-01T01:16:11.970Z,38.80
2022-09-01T01:18:39.740Z,38.80
2022-09-01T01:21:34.705Z,38.80
2022-09-01T01:24:03.579Z,38.80
2022-09-01T01:26:32.710Z,38.90
2022-09-01T01:29:02.906Z,38.90
2022-09-01T01:31:32.552Z,39.00
2022-09-01T01:34:01.809Z,38.90
2022-09-01T01:36:33.840Z,38.90
2022-09-01T01:39:04.950Z,38.90
2022-09-01T01:41:34.701Z,39.00
2022-09-01T01:44:04.283Z,39.00
2022-09-01T01:46:32.980Z,38.90
2022-09-01T01:49:03.392Z,38.90
2022-09-01T01:51:32.876Z,39.00
2022-09-01T01:54:05.659Z,39.00
2022-09-01T01:56:39.678Z,39.00
2022-09-01T01:59:08.275Z,39.00
2022-09-01T02:01:36.836Z,39.00
2022-09-01T02:04:05.651Z,39.00
2022-09-01T02:06:34.556Z,39.10
2022-09-01T02:09:04.139Z,39.10
2022-09-01T02:11:37.770Z,39.00
2022-09-01T02:14:06.932Z,39.10
2022-09-01T02:16:35.186Z,39.10
2022-09-01T02:19:07.119Z,39.00
2022-09-01T02:21:35.245Z,39.00
2022-09-01T02:24:05.895Z,39.10
2022-09-01T02:26:38.587Z,39.10
2022-09-01T02:29:09.150Z,39.10
2022-09-01T02:31:41.770Z,39.10
2022-09-01T02:34:13.791Z,39.10
2022-09-01T02:36:44.173Z,39.20
2022-09-01T02:39:13.180Z,39.20
2022-09-01T02:41:42.766Z,39.20
2022-09-01T02:44:12.581Z,39.30
2022-09-01T02:46:42.933Z,39.40
2022-09-01T02:49:15.168Z,39.40
2022-09-01T02:51:43.240Z,39.40
2022-09-01T02:54:15.337Z,39.40
2022-09-01T02:56:44.774Z,39.40
2022-09-01T02:59:12.979Z,39.40
2022-09-01T03:01:41.083Z,39.40
2022-09-01T03:04:09.944Z,39.30
2022-09-01T03:06:38.894Z,39.40
2022-09-01T03:09:08.519Z,39.40
2022-09-01T03:11:40.043Z,39.40
2022-09-01T03:14:09.262Z,39.40
2022-09-01T03:16:37.234Z,39.50
2022-09-01T03:19:07.400Z,39.50
2022-09-01T03:21:35.527Z,39.40
2022-09-01T03:24:03.863Z,39.50
2022-09-01T03:26:31.635Z,39.50
2022-09-01T03:28:59.568Z,39.60
2022-09-01T03:31:30.923Z,39.50
2022-09-01T03:34:00.605Z,39.60
2022-09-01T03:36:33.269Z,39.60
2022-09-01T03:39:01.543Z,39.60
2022-09-01T03:41:31.422Z,39.70
2022-09-01T03:43:59.444Z,39.70
2022-09-01T03:46:36.279Z,39.70
2022-09-01T03:49:06.808Z,39.70
2022-09-01T03:51:38.941Z,39.70
2022-09-01T03:54:07.678Z,39.70
2022-09-01T03:56:35.552Z,39.80
2022-09-01T03:59:03.663Z,39.90
2022-09-01T04:01:37.949Z,39.80
2022-09-01T04:04:06.577Z,39.80
2022-09-01T04:06:34.408Z,39.90
2022-09-01T04:09:03.621Z,39.80
2022-09-01T04:11:35.088Z,39.90
2022-09-01T04:14:02.962Z,39.90
2022-09-01T04:16:54.712Z,40.00
2022-09-01T04:19:26.446Z,40.00
2022-09-01T04:21:57.045Z,40.00
2022-09-01T04:24:28.177Z,40.00
2022-09-01T04:26:56.398Z,40.00
2022-09-01T04:29:27.448Z,40.10
2022-09-01T04:32:01.979Z,40.00
2022-09-01T04:34:36.998Z,40.00
2022-09-01T04:37:08.083Z,40.10
2022-09-01T04:39:36.513Z,40.00
2022-09-01T04:42:06.792Z,40.10
2022-09-01T04:44:34.598Z,40.10
2022-09-01T04:47:03.756Z,40.10
2022-09-01T04:49:33.716Z,40.10
2022-09-01T04:52:01.705Z,40.10
2022-09-01T04:54:32.788Z,40.20
2022-09-01T04:57:00.998Z,40.10
2022-09-01T04:59:30.882Z,40.20
2022-09-01T05:02:01.416Z,40.20
2022-09-01T05:04:32.498Z,40.20
2022-09-01T05:07:01.681Z,40.20
2022-09-01T05:09:36.478Z,40.20
2022-09-01T05:12:33.158Z,40.20
2022-09-01T05:15:06.270Z,40.20
2022-09-01T05:17:34.230Z,40.20
2022-09-01T05:20:03.730Z,40.20
2022-09-01T05:22:31.539Z,40.30
2022-09-01T05:25:11.694Z,40.30
2022-09-01T05:27:42.012Z,40.30
2022-09-01T05:30:10.726Z,40.30
2022-09-01T05:32:39.812Z,40.40
2022-09-01T05:35:09.696Z,40.30
2022-09-01T05:37:38.391Z,40.40
2022-09-01T05:40:09.668Z,40.40
2022-09-01T05:42:40.616Z,40.30
2022-09-01T05:45:11.713Z,40.40
2022-09-01T05:47:40.872Z,40.40
2022-09-01T05:50:14.512Z,40.40
2022-09-01T05:52:47.788Z,40.50
2022-09-01T05:55:16.616Z,40.40
2022-09-01T05:57:48.061Z,40.40
2022-09-01T06:00:18.415Z,40.50
2022-09-01T06:02:49.222Z,40.50
2022-09-01T06:05:22.670Z,40.50
2022-09-01T06:07:55.430Z,40.50
2022-09-01T06:10:23.617Z,40.50
2022-09-01T06:12:53.936Z,40.60
2022-09-01T06:15:22.783Z,40.60
2022-09-01T06:17:53.535Z,40.60
2022-09-01T06:20:22.930Z,40.60
2022-09-01T06:22:52.517Z,40.60
2022-09-01T06:25:21.480Z,40.70
2022-09-01T06:27:49.346Z,40.70
2022-09-01T06:30:23.752Z,40.70
2022-09-01T06:33:10.850Z,40.70
2022-09-01T06:35:42.200Z,40.70
2022-09-01T06:38:10.356Z,40.70
2022-09-01T06:40:45.083Z,40.70
2022-09-01T06:43:17.078Z,40.80
2022-09-01T06:45:54.162Z,40.90
2022-09-01T06:48:24.004Z,40.90
2022-09-01T06:51:17.157Z,40.90
2022-09-01T06:53:50.080Z,40.90
2022-09-01T06:56:18.649Z,41.00
2022-09-01T06:58:48.161Z,41.60
2022-09-01T07:01:17.819Z,40.90
2022-09-01T07:03:47.493Z,40.90
2022-09-01T07:10:06.067Z,41.00
2022-09-01T07:13:04.738Z,41.00
2022-09-01T07:18:21.162Z,41.00
2022-09-01T07:24:06.117Z,41.10
2022-09-01T07:26:27.237Z,41.10
2022-09-01T07:29:04.160Z,41.10
2022-09-01T07:34:42.168Z,41.00
2022-09-01T07:38:46.842Z,41.10
2022-09-01T07:46:36.616Z,41.10
2022-09-01T07:49:02.730Z,40.90
2022-09-01T07:51:42.114Z,40.90
2022-09-01T07:54:13.720Z,40.70
2022-09-01T07:56:43.159Z,40.80
2022-09-01T07:59:15.045Z,40.60
2022-09-01T08:01:51.104Z,40.60
2022-09-01T08:04:22.902Z,40.60
2022-09-01T08:06:51.083Z,40.60
2022-09-01T08:09:27.386Z,40.50
2022-09-01T08:12:07.627Z,40.70
2022-09-01T08:14:39.467Z,40.70
2022-09-01T08:19:58.543Z,40.50
2022-09-01T08:22:44.928Z,40.50
2022-09-01T08:25:24.225Z,40.30
2022-09-01T08:28:01.929Z,40.10
2022-09-01T08:30:32.417Z,40.00
2022-09-01T08:33:10.197Z,39.90
2022-09-01T08:35:39.398Z,39.40
2022-09-01T08:38:07.217Z,39.40
2022-09-01T08:40:35.216Z,39.30
2022-09-01T08:43:15.151Z,39.00
2022-09-01T08:45:47.241Z,38.60
2022-09-01T08:51:14.119Z,38.20
2022-09-01T08:54:00.106Z,38.20
2022-09-01T08:56:27.910Z,38.20
2022-09-01T09:01:39.989Z,37.90
2022-09-01T09:04:20.609Z,38.00
2022-09-01T09:06:51.333Z,37.80
2022-09-01T09:09:19.268Z,37.90
2022-09-01T09:12:09.835Z,38.00
2022-09-01T09:15:13.681Z,38.00
2022-09-01T09:17:44.536Z,37.90
2022-09-01T09:20:12.271Z,38.10
2022-09-01T09:22:40.244Z,38.20
2022-09-01T09:25:09.785Z,37.90
2022-09-01T09:27:38.443Z,38.10
2022-09-01T09:30:09.515Z,38.40
2022-09-01T09:33:24.889Z,38.50
2022-09-01T09:35:38.850Z,38.30
2022-09-01T09:38:21.704Z,38.30
2022-09-01T09:41:16.030Z,37.70
2022-09-01T09:43:47.506Z,37.90
2022-09-01T09:46:25.220Z,38.20
2022-09-01T09:49:10.939Z,37.50
2022-09-01T09:51:38.808Z,37.80
2022-09-01T09:54:19.105Z,37.40
2022-09-01T09:56:46.883Z,37.50
2022-09-01T09:59:45.851Z,37.70
2022-09-01T10:02:27.986Z,38.00
2022-09-01T10:04:57.352Z,37.80
2022-09-01T10:07:33.304Z,37.70
2022-09-01T10:10:02.105Z,37.80
2022-09-01T10:12:29.851Z,37.60
2022-09-01T10:14:59.588Z,37.60
2022-09-01T10:17:35.937Z,36.90
2022-09-01T10:20:07.605Z,37.20
2022-09-01T10:22:39.535Z,37.20
2022-09-01T10:25:10.426Z,37.10
2022-09-01T10:27:39.802Z,36.70
2022-09-01T10:30:24.223Z,36.60
2022-09-01T10:32:55.916Z,36.60
2022-09-01T10:35:27.264Z,36.70
2022-09-01T10:37:57.917Z,37.00
2022-09-01T10:40:44.593Z,37.00
2022-09-01T10:43:37.868Z,36.40
2022-09-01T10:46:42.165Z,36.00
2022-09-01T10:49:25.225Z,35.70
2022-09-01T10:51:57.569Z,36.10
2022-09-01T10:54:58.188Z,36.00
2022-09-01T10:57:42.981Z,36.30
2022-09-01T11:01:10.685Z,36.50
2022-09-01T11:03:56.220Z,36.40
2022-09-01T11:07:13.089Z,36.60
2022-09-01T11:09:42.811Z,36.60
2022-09-01T11:12:32.343Z,36.70
2022-09-01T11:15:00.868Z,36.60
2022-09-01T11:17:29.314Z,36.70
2022-09-01T11:20:03.520Z,36.90
2022-09-01T11:22:33.541Z,36.90
2022-09-01T11:25:26.647Z,37.00
2022-09-01T11:28:45.235Z,36.90
2022-09-01T11:31:40.832Z,36.80
2022-09-01T11:34:13.880Z,36.70
2022-09-01T11:36:51.030Z,37.00
2022-09-01T11:39:30.158Z,36.80
2022-09-01T11:42:04.264Z,36.90
2022-09-01T11:44:35.585Z,36.80
2022-09-01T11:47:04.542Z,36.80
2022-09-01T11:49:33.158Z,36.90
2022-09-01T11:52:01.573Z,37.00
2022-09-01T11:54:29.380Z,36.90
2022-09-01T11:56:57.043Z,36.90
2022-09-01T11:59:34.346Z,37.00
2022-09-01T12:02:03.985Z,36.90
2022-09-01T12:04:33.635Z,36.90
2022-09-01T12:07:02.560Z,37.00
2022-09-01T12:09:37.804Z,37.10
2022-09-01T12:12:06.730Z,36.80
2022-09-01T12:15:01.952Z,36.70
2022-09-01T12:17:23.572Z,36.60
2022-09-01T12:19:51.420Z,36.20
2022-09-01T12:22:20.032Z,35.90
2022-09-01T12:24:48.685Z,35.60
2022-09-01T12:27:16.381Z,35.40
2022-09-01T12:29:45.451Z,35.40
2022-09-01T12:32:13.311Z,35.20
2022-09-01T12:34:43.068Z,36.00
2022-09-01T12:37:12.956Z,35.30
2022-09-01T12:39:42.455Z,34.90
2022-09-01T12:42:12.552Z,35.10
2022-09-01T12:44:51.287Z,34.90
2022-09-01T12:47:50.979Z,35.10
2022-09-01T12:50:43.595Z,35.20
2022-09-01T12:53:25.724Z,34.70
2022-09-01T12:56:07.987Z,34.80
2022-09-01T12:58:35.696Z,34.80
2022-09-01T13:01:08.774Z,35.00
2022-09-01T13:03:44.633Z,34.70
2022-09-01T13:06:12.439Z,34.60
2022-09-01T13:08:40.286Z,34.60
2022-09-01T13:11:11.468Z,34.70
2022-09-01T13:13:39.431Z,34.60
2022-09-01T13:16:13.010Z,35.30
2022-09-01T13:21:30.291Z,35.20
2022-09-01T13:23:58.111Z,34.60
2022-09-01T13:26:26.253Z,34.50
2022-09-01T13:28:54.116Z,34.40
2022-09-01T13:31:30.739Z,34.40
2022-09-01T13:34:23.350Z,34.40
2022-09-01T13:36:51.595Z,34.50
2022-09-01T13:39:20.732Z,34.60
2022-09-01T13:41:48.443Z,34.50
2022-09-01T13:44:17.319Z,34.70
2022-09-01T13:47:28.743Z,34.70
2022-09-01T13:49:43.733Z,35.00
2022-09-01T13:52:12.934Z,35.00
2022-09-01T13:54:40.714Z,35.00
2022-09-01T13:57:08.424Z,35.10
2022-09-01T13:59:36.188Z,35.30
2022-09-01T14:02:05.484Z,35.30
2022-09-01T14:04:33.229Z,35.40
2022-09-01T14:07:01.009Z,36.00
2022-09-01T14:09:28.821Z,35.30
2022-09-01T14:11:57.046Z,35.40
2022-09-01T14:14:24.743Z,35.40
2022-09-01T14:16:52.708Z,35.40
2022-09-01T14:19:22.860Z,35.10
2022-09-01T14:21:50.595Z,35.00
2022-09-01T14:24:19.805Z,35.20
2022-09-01T14:26:48.073Z,35.00
2022-09-01T14:29:15.886Z,35.40
2022-09-01T14:31:45.030Z,35.60
2022-09-01T14:34:13.412Z,35.60
2022-09-01T14:36:42.589Z,35.60
2022-09-01T14:39:13.729Z,35.70
2022-09-01T14:41:41.508Z,35.70
2022-09-01T14:44:09.366Z,35.60
2022-09-01T14:46:37.464Z,35.70
2022-09-01T14:49:05.505Z,35.80
2022-09-01T14:54:23.216Z,35.80
2022-09-01T14:59:38.968Z,35.90
2022-09-01T15:02:06.968Z,36.20
2022-09-01T15:04:35.725Z,36.20
2022-09-01T15:07:05.459Z,36.40
2022-09-01T15:09:34.600Z,36.20
2022-09-01T15:12:02.913Z,36.60
2022-09-01T15:14:30.767Z,36.60
2022-09-01T15:16:58.530Z,36.60
2022-09-01T15:19:26.398Z,36.80
2022-09-01T15:21:54.320Z,36.80
2022-09-01T15:24:23.111Z,37.00
2022-09-01T15:26:52.185Z,36.90
2022-09-01T15:29:19.954Z,36.00
2022-09-01T15:31:47.810Z,35.80
2022-09-01T15:34:17.592Z,36.00
2022-09-01T15:36:45.681Z,36.40
2022-09-01T15:39:13.466Z,36.20
2022-09-01T15:41:41.237Z,36.20
2022-09-01T15:44:11.127Z,36.40
2022-09-01T15:46:40.510Z,36.30
2022-09-01T15:49:09.170Z,36.00
2022-09-01T15:51:37.379Z,36.20
2022-09-01T15:54:06.586Z,35.80
2022-09-01T15:56:34.746Z,35.50
2022-09-01T15:59:03.543Z,35.60
2022-09-01T16:01:34.409Z,35.70
2022-09-01T16:04:02.488Z,35.50
2022-09-01T16:06:30.369Z,35.30
2022-09-01T16:08:58.451Z,35.60
2022-09-01T16:11:26.327Z,35.50
2022-09-01T16:13:54.275Z,35.60
2022-09-01T16:16:37.455Z,35.50
2022-09-01T16:19:13.984Z,35.40
2022-09-01T16:21:45.056Z,35.60
2022-09-01T16:24:13.307Z,35.70
2022-09-01T16:26:41.311Z,35.90
2022-09-01T16:29:11.249Z,36.00
2022-09-01T16:31:42.916Z,35.60
2022-09-01T16:34:13.916Z,35.50
2022-09-01T16:36:45.779Z,35.60
2022-09-01T16:39:16.500Z,35.90
2022-09-01T16:41:51.056Z,35.90
2022-09-01T16:44:28.559Z,35.40
2022-09-01T16:47:03.618Z,35.50
2022-09-01T16:49:33.785Z,35.90
2022-09-01T16:52:05.507Z,35.60
2022-09-01T16:54:40.758Z,35.80
2022-09-01T16:57:10.571Z,35.60
2022-09-01T16:59:40.880Z,35.70
2022-09-01T17:02:19.024Z,34.90
2022-09-01T17:04:47.747Z,35.20
2022-09-01T17:07:16.428Z,35.20
2022-09-01T17:09:45.012Z,35.70
2022-09-01T17:12:27.491Z,35.60
2022-09-01T17:14:58.276Z,35.20
2022-09-01T17:17:35.442Z,35.80
2022-09-01T17:20:03.941Z,36.10
2022-09-01T17:22:31.698Z,35.80
2022-09-01T17:27:36.515Z,35.50
2022-09-01T17:30:07.052Z,35.50
2022-09-01T17:32:49.646Z,35.90
2022-09-01T17:35:20.880Z,36.10
2022-09-01T17:38:03.708Z,36.50
2022-09-01T17:40:41.567Z,36.20
2022-09-01T17:43:13.020Z,36.50
2022-09-01T17:45:51.270Z,35.60
2022-09-01T17:48:21.829Z,35.40
2022-09-01T17:50:58.031Z,36.40
2022-09-01T17:53:33.818Z,35.60
2022-09-01T17:56:03.363Z,35.70
2022-09-01T17:58:40.572Z,35.40
2022-09-01T18:01:10.484Z,35.50
2022-09-01T18:03:53.550Z,35.80
2022-09-01T18:06:24.182Z,35.60
2022-09-01T18:08:53.895Z,36.20
2022-09-01T18:11:24.420Z,35.60
2022-09-01T18:13:56.295Z,35.70
2022-09-01T18:16:25.724Z,35.40
2022-09-01T18:18:54.983Z,35.90
2022-09-01T18:21:24.422Z,35.40
2022-09-01T18:23:54.181Z,35.40
2022-09-01T18:26:25.292Z,35.60
2022-09-01T18:28:54.368Z,35.70
2022-09-01T18:31:40.086Z,35.90
2022-09-01T18:34:12.191Z,36.00
2022-09-01T18:36:43.103Z,36.10
2022-09-01T18:39:13.357Z,36.30
2022-09-01T18:41:57.100Z,36.30
2022-09-01T18:44:32.846Z,36.40
2022-09-01T18:47:01.944Z,36.30
2022-09-01T18:49:35.919Z,36.20
2022-09-01T18:52:10.957Z,36.50
2022-09-01T18:54:40.810Z,36.30
2022-09-01T18:57:10.115Z,36.80
2022-09-01T18:59:57.731Z,36.40
2022-09-01T19:02:42.424Z,36.80
2022-09-01T19:05:16.834Z,36.50
2022-09-01T19:07:47.991Z,36.40
2022-09-01T19:10:18.590Z,36.50
2022-09-01T19:12:50.724Z,36.60
2022-09-01T19:15:21.162Z,36.50
2022-09-01T19:18:09.937Z,36.70
2022-09-01T19:20:42.460Z,36.90
2022-09-01T19:23:13.468Z,36.90
2022-09-01T19:25:41.513Z,36.70
2022-09-01T19:28:19.442Z,36.90
2022-09-01T19:30:49.439Z,37.60
2022-09-01T19:33:19.885Z,38.00
2022-09-01T19:35:49.483Z,38.30
2022-09-01T19:38:20.332Z,38.50
2022-09-01T19:40:49.021Z,38.70
2022-09-01T19:43:18.094Z,39.00
2022-09-01T19:45:55.993Z,39.30
2022-09-01T19:48:26.711Z,40.00
2022-09-01T19:50:56.869Z,39.20
2022-09-01T19:53:32.250Z,39.60
2022-09-01T19:56:03.783Z,39.50
2022-09-01T19:58:36.335Z,39.90
2022-09-01T20:01:05.677Z,40.00
2022-09-01T20:03:35.318Z,39.90
2022-09-01T20:06:05.982Z,40.00
2022-09-01T20:08:35.596Z,40.00
2022-09-01T20:11:05.265Z,40.00
2022-09-01T20:14:01.648Z,40.20
2022-09-01T20:16:32.527Z,40.50
2022-09-01T20:19:03.044Z,40.30
2022-09-01T20:21:32.260Z,40.40
2022-09-01T20:24:01.907Z,40.40
2022-09-01T20:26:32.044Z,40.50
2022-09-01T20:29:02.159Z,40.50
2022-09-01T20:31:31.942Z,40.60
2022-09-01T20:34:01.916Z,40.40
2022-09-01T20:36:34.348Z,40.60
2022-09-01T20:39:22.177Z,40.50
2022-09-01T20:41:52.612Z,40.60
2022-09-01T20:44:30.793Z,40.60
2022-09-01T20:46:58.704Z,40.70
2022-09-01T20:49:26.435Z,40.80
2022-09-01T20:51:58.500Z,40.70
2022-09-01T20:54:32.912Z,40.70
2022-09-01T20:57:09.404Z,40.80
2022-09-01T20:59:40.096Z,40.90
2022-09-01T21:02:14.478Z,40.90
2022-09-01T21:04:46.013Z,41.10
2022-09-01T21:07:16.968Z,41.20
2022-09-01T21:09:52.236Z,41.30
2022-09-01T21:12:25.212Z,41.50
2022-09-01T21:14:59.099Z,41.30
2022-09-01T21:17:30.424Z,41.50
2022-09-01T21:20:03.891Z,41.50
2022-09-01T21:22:32.957Z,41.50
2022-09-01T21:25:01.241Z,41.60
2022-09-01T21:27:33.098Z,41.50
2022-09-01T21:30:02.939Z,41.60
2022-09-01T21:32:31.360Z,41.60
2022-09-01T21:34:59.229Z,41.80
2022-09-01T21:37:27.507Z,41.80
2022-09-01T21:39:57.939Z,41.70
2022-09-01T21:42:26.888Z,41.60
2022-09-01T21:44:55.125Z,41.60
2022-09-01T21:47:23.008Z,41.70
2022-09-01T21:49:50.703Z,41.60
2022-09-01T21:52:18.434Z,41.80
2022-09-01T21:54:46.124Z,41.60
2022-09-01T21:57:15.190Z,41.80
2022-09-01T21:59:42.881Z,41.70
2022-09-01T22:02:10.728Z,41.60
2022-09-01T22:04:38.863Z,41.60
2022-09-01T22:07:06.953Z,42.00
2022-09-01T22:09:34.671Z,41.80
2022-09-01T22:12:02.687Z,41.90
2022-09-01T22:14:31.772Z,42.40
2022-09-01T22:17:03.986Z,41.80
2022-09-01T22:19:33.666Z,41.90
2022-09-01T22:22:02.101Z,41.90
2022-09-01T22:24:29.811Z,41.90
2022-09-01T22:26:57.587Z,41.80
2022-09-01T22:29:25.264Z,41.90
2022-09-01T22:31:54.307Z,41.90
2022-09-01T22:34:21.998Z,41.80
2022-09-01T22:36:49.970Z,41.80
2022-09-01T22:39:18.204Z,41.90
2022-09-01T22:41:46.041Z,42.00
2022-09-01T22:44:13.809Z,42.00
2022-09-01T22:46:41.612Z,42.00
2022-09-01T22:49:11.053Z,41.90
2022-09-01T22:51:39.199Z,41.90
2022-09-01T22:54:07.231Z,42.00
2022-09-01T22:56:37.776Z,42.30
2022-09-01T22:59:07.206Z,42.40
2022-09-01T23:01:36.111Z,42.10
2022-09-01T23:04:05.093Z,42.20
2022-09-01T23:06:34.778Z,42.40
2022-09-01T23:09:03.163Z,42.60
2022-09-01T23:11:31.017Z,42.50
2022-09-01T23:13:58.882Z,42.60
2022-09-01T23:16:26.698Z,42.50
2022-09-01T23:18:54.681Z,42.50
2022-09-01T23:21:24.178Z,42.50
2022-09-01T23:23:58.621Z,42.70
2022-09-01T23:26:26.887Z,43.20
2022-09-01T23:28:54.955Z,42.80
2022-09-01T23:31:24.502Z,42.80
2022-09-01T23:33:52.395Z,42.70
2022-09-01T23:36:22.203Z,42.60
2022-09-01T23:38:50.076Z,42.50
2022-09-01T23:41:23.044Z,42.80
2022-09-01T23:43:51.164Z,42.70
2022-09-01T23:46:19.584Z,42.60
2022-09-01T23:48:47.349Z,42.70
2022-09-01T23:51:15.051Z,42.80
2022-09-01T23:53:42.755Z,43.20
2022-09-01T23:56:12.306Z,43.00
2022-09-01T23:58:41.388Z,43.00
